sensor_id;sensor_type;location;lat;lon;timestamp;pressure;altitude;pressure_sealevel;temperature;humidity
47710;BME280;33473;51.640;5.892;2023-04-19T00:00:24;102600;;;16.7;43.0
47710;BME280;33473;51.640;5.892;2023-04-19T00:13:44;102500;;;16.7;43.0
47710;BME280;33473;51.640;5.892;2023-04-19T00:27:04;102500;;;16.7;43.0
47710;BME280;33473;51.640;5.892;2023-04-19T00:40:23;102500;;;16.7;43.0
47710;BME280;33473;51.640;5.892;2023-04-19T00:53:43;102500;;;16.6;44.0
47710;BME280;33473;51.640;5.892;2023-04-19T01:07:03;102500;;;16.6;45.0
47710;BME280;33473;51.640;5.892;2023-04-19T01:20:22;102500;;;16.8;44.0
47710;BME280;33473;51.640;5.892;2023-04-19T01:33:42;102500;;;17.0;44.0
47710;BME280;33473;51.640;5.892;2023-04-19T01:47:02;102500;;;16.9;45.0
47710;BME280;33473;51.640;5.892;2023-04-19T02:00:21;102500;;;16.7;45.0
47710;BME280;33473;51.640;5.892;2023-04-19T02:13:41;102500;;;16.9;45.0
47710;BME280;33473;51.640;5.892;2023-04-19T02:27:01;102500;;;16.9;45.0
47710;BME280;33473;51.640;5.892;2023-04-19T02:40:20;102500;;;17.0;45.0
47710;BME280;33473;51.640;5.892;2023-04-19T02:53:40;102500;;;17.0;45.0
47710;BME280;33473;51.640;5.892;2023-04-19T03:07:00;102500;;;16.8;45.0
47710;BME280;33473;51.640;5.892;2023-04-19T03:20:19;102500;;;16.7;45.0
47710;BME280;33473;51.640;5.892;2023-04-19T03:33:39;102500;;;16.5;45.0
47710;BME280;33473;51.640;5.892;2023-04-19T03:46:59;102500;;;16.4;45.0
47710;BME280;33473;51.640;5.892;2023-04-19T04:00:18;102500;;;16.2;45.0
47710;BME280;33473;51.640;5.892;2023-04-19T04:13:38;102500;;;15.7;45.0
47710;BME280;33473;51.640;5.892;2023-04-19T04:26:58;102500;;;15.3;45.0
47710;BME280;33473;51.640;5.892;2023-04-19T04:40:17;102500;;;15.1;46.0
47710;BME280;33473;51.640;5.892;2023-04-19T04:53:37;102500;;;14.6;46.0
47710;BME280;33473;51.640;5.892;2023-04-19T05:06:57;102500;;;14.4;47.0
47710;BME280;33473;51.640;5.892;2023-04-19T05:20:16;102500;;;14.7;46.0
47710;BME280;33473;51.640;5.892;2023-04-19T05:33:36;102500;;;15.1;44.0
47710;BME280;33473;51.640;5.892;2023-04-19T05:46:56;102500;;;15.8;42.0
47710;BME280;33473;51.640;5.892;2023-04-19T06:00:15;102500;;;15.4;40.0
47710;BME280;33473;51.640;5.892;2023-04-19T06:13:35;102500;;;15.4;41.0
47710;BME280;33473;51.640;5.892;2023-04-19T06:26:55;102500;;;15.9;40.0
47710;BME280;33473;51.640;5.892;2023-04-19T06:40:14;102500;;;16.5;38.0
47710;BME280;33473;51.640;5.892;2023-04-19T06:53:34;102500;;;17.8;36.0
47710;BME280;33473;51.640;5.892;2023-04-19T07:06:54;102500;;;18.0;34.0
47710;BME280;33473;51.640;5.892;2023-04-19T07:20:13;102500;;;18.7;31.0
47710;BME280;33473;51.640;5.892;2023-04-19T07:33:33;102500;;;18.8;29.0
47710;BME280;33473;51.640;5.892;2023-04-19T07:46:53;102500;;;19.7;28.0
47710;BME280;33473;51.640;5.892;2023-04-19T08:00:12;102500;;;19.8;27.0
47710;BME280;33473;51.640;5.892;2023-04-19T08:13:32;102500;;;19.7;27.0
47710;BME280;33473;51.640;5.892;2023-04-19T08:26:52;102500;;;20.5;27.0
47710;BME280;33473;51.640;5.892;2023-04-19T08:40:12;102500;;;20.1;26.0
47710;BME280;33473;51.640;5.892;2023-04-19T08:53:31;102500;;;20.2;26.0
47710;BME280;33473;51.640;5.892;2023-04-19T09:06:51;102500;;;20.5;25.0
47710;BME280;33473;51.640;5.892;2023-04-19T09:20:11;102500;;;21.3;25.0
47710;BME280;33473;51.640;5.892;2023-04-19T09:33:30;102500;;;21.3;24.0
47710;BME280;33473;51.640;5.892;2023-04-19T09:46:50;102500;;;20.9;24.0
47710;BME280;33473;51.640;5.892;2023-04-19T10:00:10;102500;;;21.5;21.0
47710;BME280;33473;51.640;5.892;2023-04-19T10:13:29;102500;;;21.1;22.0
47710;BME280;33473;51.640;5.892;2023-04-19T10:26:49;102500;;;21.1;23.0
47710;BME280;33473;51.640;5.892;2023-04-19T10:40:09;102500;;;21.3;23.0
47710;BME280;33473;51.640;5.892;2023-04-19T10:53:28;102400;;;22.2;22.0
47710;BME280;33473;51.640;5.892;2023-04-19T11:06:48;102400;;;22.2;24.0
47710;BME280;33473;51.640;5.892;2023-04-19T11:20:08;102400;;;21.6;20.0
47710;BME280;33473;51.640;5.892;2023-04-19T11:33:27;102400;;;22.4;22.0
47710;BME280;33473;51.640;5.892;2023-04-19T11:46:47;102400;;;22.4;20.0
47710;BME280;33473;51.640;5.892;2023-04-19T12:00:07;102400;;;22.8;19.0
47710;BME280;33473;51.640;5.892;2023-04-19T12:13:27;102300;;;22.6;18.0
47710;BME280;33473;51.640;5.892;2023-04-19T12:26:46;102300;;;22.3;18.0
47710;BME280;33473;51.640;5.892;2023-04-19T12:40:06;102300;;;22.4;17.0
47710;BME280;33473;51.640;5.892;2023-04-19T12:53:26;102300;;;22.9;20.0
47710;BME280;33473;51.640;5.892;2023-04-19T13:06:45;102300;;;23.4;18.0
47710;BME280;33473;51.640;5.892;2023-04-19T13:20:05;102300;;;23.5;19.0
47710;BME280;33473;51.640;5.892;2023-04-19T13:33:25;102300;;;23.2;18.0
47710;BME280;33473;51.640;5.892;2023-04-19T13:46:44;102200;;;22.4;21.0
47710;BME280;33473;51.640;5.892;2023-04-19T14:00:04;102200;;;23.2;22.0
47710;BME280;33473;51.640;5.892;2023-04-19T14:13:24;102200;;;23.9;18.0
47710;BME280;33473;51.640;5.892;2023-04-19T14:26:43;102200;;;24.7;17.0
47710;BME280;33473;51.640;5.892;2023-04-19T14:40:03;102200;;;24.7;19.0
47710;BME280;33473;51.640;5.892;2023-04-19T14:53:23;102200;;;25.1;19.0
47710;BME280;33473;51.640;5.892;2023-04-19T15:06:42;102200;;;24.2;18.0
47710;BME280;33473;51.640;5.892;2023-04-19T15:20:02;102100;;;24.2;20.0
47710;BME280;33473;51.640;5.892;2023-04-19T15:33:22;102100;;;23.8;19.0
47710;BME280;33473;51.640;5.892;2023-04-19T15:46:41;102100;;;23.5;17.0
47710;BME280;33473;51.640;5.892;2023-04-19T16:00:01;102100;;;23.4;20.0
47710;BME280;33473;51.640;5.892;2023-04-19T16:13:21;102100;;;22.5;21.0
47710;BME280;33473;51.640;5.892;2023-04-19T16:26:40;102100;;;22.0;21.0
47710;BME280;33473;51.640;5.892;2023-04-19T16:40:00;102100;;;21.3;21.0
47710;BME280;33473;51.640;5.892;2023-04-19T16:53:20;102100;;;20.6;21.0
47710;BME280;33473;51.640;5.892;2023-04-19T17:06:39;102100;;;20.6;20.0
47710;BME280;33473;51.640;5.892;2023-04-19T17:19:59;102100;;;20.2;20.0
47710;BME280;33473;51.640;5.892;2023-04-19T17:33:19;102100;;;19.8;20.0
47710;BME280;33473;51.640;5.892;2023-04-19T17:46:38;102100;;;19.4;21.0
47710;BME280;33473;51.640;5.892;2023-04-19T17:59:58;102100;;;19.2;21.0
47710;BME280;33473;51.640;5.892;2023-04-19T18:13:18;102100;;;18.5;22.0
47710;BME280;33473;51.640;5.892;2023-04-19T18:26:37;102100;;;18.0;23.0
47710;BME280;33473;51.640;5.892;2023-04-19T18:39:57;102100;;;17.5;23.0
47710;BME280;33473;51.640;5.892;2023-04-19T18:53:17;102100;;;17.1;23.0
47710;BME280;33473;51.640;5.892;2023-04-19T19:06:36;102100;;;16.8;23.0
47710;BME280;33473;51.640;5.892;2023-04-19T19:19:56;102200;;;16.5;24.0
47710;BME280;33473;51.640;5.892;2023-04-19T19:33:16;102200;;;16.2;25.0
47710;BME280;33473;51.640;5.892;2023-04-19T19:46:35;102200;;;15.7;26.0
47710;BME280;33473;51.640;5.892;2023-04-19T19:59:55;102200;;;15.5;27.0
47710;BME280;33473;51.640;5.892;2023-04-19T20:13:15;102200;;;15.3;26.0
47710;BME280;33473;51.640;5.892;2023-04-19T20:26:34;102200;;;14.8;28.0
47710;BME280;33473;51.640;5.892;2023-04-19T20:39:54;102200;;;14.4;27.0
47710;BME280;33473;51.640;5.892;2023-04-19T20:53:14;102200;;;14.6;27.0
47710;BME280;33473;51.640;5.892;2023-04-19T21:06:33;102200;;;14.7;26.0
47710;BME280;33473;51.640;5.892;2023-04-19T21:19:53;102200;;;14.7;27.0
47710;BME280;33473;51.640;5.892;2023-04-19T21:33:13;102200;;;14.1;27.0
47710;BME280;33473;51.640;5.892;2023-04-19T21:46:33;102200;;;14.1;28.0
47710;BME280;33473;51.640;5.892;2023-04-19T21:59:52;102200;;;13.9;27.0
47710;BME280;33473;51.640;5.892;2023-04-19T22:13:12;102200;;;13.7;27.0
47710;BME280;33473;51.640;5.892;2023-04-19T22:26:32;102200;;;13.6;28.0
47710;BME280;33473;51.640;5.892;2023-04-19T22:39:51;102200;;;13.4;28.0
47710;BME280;33473;51.640;5.892;2023-04-19T22:53:11;102200;;;12.9;28.0
47710;BME280;33473;51.640;5.892;2023-04-19T23:06:31;102200;;;12.8;29.0
47710;BME280;33473;51.640;5.892;2023-04-19T23:19:50;102100;;;12.2;28.0
47710;BME280;33473;51.640;5.892;2023-04-19T23:33:10;102100;;;12.4;29.0
47710;BME280;33473;51.640;5.892;2023-04-19T23:46:30;102100;;;12.1;29.0
47710;BME280;33473;51.640;5.892;2023-04-19T23:59:49;102100;;;11.7;29.0
